KYKN/YKN METAR and TAF weather

Enter ICAO airport designator
Station Type Date Time Source
KYKN METAR 2020/01/21 08:56 UTC NOAA

KYKN 210856Z AUTO 12006KT 10SM CLR M19/M22 A3045 RMK AO2 SLP360 T11941217 56021 FZRANO


Station Type Date Time Source
KYKN Decoded METAR 2020/01/21 08:56 UTC NOAA

Yankton, Chan Gurney Municipal Airport, SD, United States (KYKN) 42-55N 097-23W
Jan 21, 2020 - 03:56 AM EST / 2020.01.21 0856 UTC
Wind: from the ESE (120 degrees) at 7 MPH (6 KT):0
Visibility: 10 mile(s):0
Sky conditions: clear
Temperature: -2.9 F (-19.4 C)
Windchill: -16 F (-27 C):2
Dew Point: -7.1 F (-21.7 C)
Relative Humidity: 81%
Pressure (altimeter): 30.45 in. Hg (1031 hPa)
Pressure tendency: 0.06 inches (2.1 hPa) lower than three hours ago
ob: KYKN 210856Z AUTO 12006KT 10SM CLR M19/M22 A3045 RMK AO2 SLP360 T11941217 56021 FZRANO
cycle: 9

Station Type Date Time Source
KYKN TAF UTC NOAA

Error!

Example: see airport list